sensor_id;sensor_type;location;lat;lon;timestamp;pressure;altitude;pressure_sealevel;temperature;humidity
60212;BME280;46079;48.686;15.598;2023-05-12T00:00:55;99820.97;;;20.44;47.58
60212;BME280;46079;48.686;15.598;2023-05-12T00:03:21;99820.16;;;20.44;47.32
60212;BME280;46079;48.686;15.598;2023-05-12T00:05:47;99814.91;;;20.44;47.42
60212;BME280;46079;48.686;15.598;2023-05-12T00:08:12;99816.69;;;20.43;47.16
60212;BME280;46079;48.686;15.598;2023-05-12T00:10:37;99813.91;;;20.45;47.35
60212;BME280;46079;48.686;15.598;2023-05-12T00:13:03;99814.06;;;20.43;47.35
60212;BME280;46079;48.686;15.598;2023-05-12T00:15:28;99816.69;;;20.43;47.29
60212;BME280;46079;48.686;15.598;2023-05-12T00:17:54;99815.72;;;20.44;47.57
60212;BME280;46079;48.686;15.598;2023-05-12T00:20:19;99811.44;;;20.43;47.40
60212;BME280;46079;48.686;15.598;2023-05-12T00:22:45;99815.72;;;20.44;47.55
60212;BME280;46079;48.686;15.598;2023-05-12T00:25:10;99817.53;;;20.44;47.35
60212;BME280;46079;48.686;15.598;2023-05-12T00:27:36;99816.69;;;20.43;47.26
60212;BME280;46079;48.686;15.598;2023-05-12T00:30:01;99818.34;;;20.44;47.19
60212;BME280;46079;48.686;15.598;2023-05-12T00:32:26;99818.34;;;20.44;47.32
60212;BME280;46079;48.686;15.598;2023-05-12T00:34:52;99813.22;;;20.43;47.49
60212;BME280;46079;48.686;15.598;2023-05-12T00:37:18;99829.84;;;20.43;47.29
60212;BME280;46079;48.686;15.598;2023-05-12T00:39:44;99817.66;;;20.42;47.38
60212;BME280;46079;48.686;15.598;2023-05-12T00:42:09;99817.66;;;20.42;47.44
60212;BME280;46079;48.686;15.598;2023-05-12T00:44:36;99809.75;;;20.42;47.29
60212;BME280;46079;48.686;15.598;2023-05-12T00:47:02;99815.84;;;20.43;47.24
60212;BME280;46079;48.686;15.598;2023-05-12T00:49:28;99814.91;;;20.44;47.25
60212;BME280;46079;48.686;15.598;2023-05-12T00:51:54;99813.38;;;20.41;47.37
60212;BME280;46079;48.686;15.598;2023-05-12T00:54:21;99814.06;;;20.43;47.46
60212;BME280;46079;48.686;15.598;2023-05-12T00:56:46;99815.03;;;20.42;47.36
60212;BME280;46079;48.686;15.598;2023-05-12T00:59:12;99819.31;;;20.43;47.29
60212;BME280;46079;48.686;15.598;2023-05-12T01:01:37;99820.28;;;20.42;47.27
60212;BME280;46079;48.686;15.598;2023-05-12T01:04:03;99816.00;;;20.41;47.33
60212;BME280;46079;48.686;15.598;2023-05-12T01:06:46;99820.28;;;20.42;47.61
60212;BME280;46079;48.686;15.598;2023-05-12T01:09:13;99822.91;;;20.42;47.34
60212;BME280;46079;48.686;15.598;2023-05-12T01:11:39;99828.16;;;20.42;47.11
60212;BME280;46079;48.686;15.598;2023-05-12T01:14:04;99818.63;;;20.41;47.32
60212;BME280;46079;48.686;15.598;2023-05-12T01:16:41;99826.50;;;20.41;47.36
60212;BME280;46079;48.686;15.598;2023-05-12T01:19:18;99825.69;;;20.41;47.13
60212;BME280;46079;48.686;15.598;2023-05-12T01:21:49;99823.88;;;20.41;47.43
60212;BME280;46079;48.686;15.598;2023-05-12T01:24:17;99821.09;;;20.43;47.44
60212;BME280;46079;48.686;15.598;2023-05-12T01:26:44;99830.78;;;20.42;47.32
60212;BME280;46079;48.686;15.598;2023-05-12T01:29:10;99831.75;;;20.41;47.44
60212;BME280;46079;48.686;15.598;2023-05-12T01:31:36;99822.25;;;20.40;47.20
60212;BME280;46079;48.686;15.598;2023-05-12T01:34:01;99827.50;;;20.40;47.24
60212;BME280;46079;48.686;15.598;2023-05-12T01:36:26;99832.75;;;20.40;47.37
60212;BME280;46079;48.686;15.598;2023-05-12T01:38:53;99826.63;;;20.40;47.29
60212;BME280;46079;48.686;15.598;2023-05-12T01:41:19;99824.00;;;20.40;47.42
60212;BME280;46079;48.686;15.598;2023-05-12T01:43:45;99824.88;;;20.40;47.16
60212;BME280;46079;48.686;15.598;2023-05-12T01:46:10;99824.88;;;20.40;47.25
60212;BME280;46079;48.686;15.598;2023-05-12T01:48:36;99828.44;;;20.39;46.99
60212;BME280;46079;48.686;15.598;2023-05-12T01:51:01;99826.63;;;20.40;47.45
60212;BME280;46079;48.686;15.598;2023-05-12T01:53:29;99824.88;;;20.40;47.37
60212;BME280;46079;48.686;15.598;2023-05-12T01:55:54;99829.25;;;20.40;47.32
60212;BME280;46079;48.686;15.598;2023-05-12T01:58:20;99822.38;;;20.39;47.35
60212;BME280;46079;48.686;15.598;2023-05-12T02:00:45;99834.53;;;20.40;47.38
60212;BME280;46079;48.686;15.598;2023-05-12T02:03:11;99828.44;;;20.39;47.41
60212;BME280;46079;48.686;15.598;2023-05-12T02:05:36;99826.63;;;20.40;46.93
60212;BME280;46079;48.686;15.598;2023-05-12T02:08:02;99826.63;;;20.40;47.34
60212;BME280;46079;48.686;15.598;2023-05-12T02:10:28;99827.63;;;20.39;47.13
60212;BME280;46079;48.686;15.598;2023-05-12T02:12:53;99838.13;;;20.39;47.15
60212;BME280;46079;48.686;15.598;2023-05-12T02:15:19;99836.31;;;20.39;47.35
60212;BME280;46079;48.686;15.598;2023-05-12T02:17:44;99831.88;;;20.40;47.22
60212;BME280;46079;48.686;15.598;2023-05-12T02:20:10;99836.31;;;20.39;47.14
60212;BME280;46079;48.686;15.598;2023-05-12T02:22:36;99841.56;;;20.39;47.11
60212;BME280;46079;48.686;15.598;2023-05-12T02:25:02;99830.25;;;20.39;47.20
60212;BME280;46079;48.686;15.598;2023-05-12T02:27:27;99832.88;;;20.39;47.28
60212;BME280;46079;48.686;15.598;2023-05-12T02:29:52;99834.69;;;20.38;47.21
60212;BME280;46079;48.686;15.598;2023-05-12T02:32:18;99838.94;;;20.39;47.32
60212;BME280;46079;48.686;15.598;2023-05-12T02:34:43;99839.94;;;20.38;47.19
60212;BME280;46079;48.686;15.598;2023-05-12T02:37:10;99841.56;;;20.39;47.27
60212;BME280;46079;48.686;15.598;2023-05-12T02:39:35;99839.09;;;20.38;47.33
60212;BME280;46079;48.686;15.598;2023-05-12T02:42:00;99838.25;;;20.37;47.50
60212;BME280;46079;48.686;15.598;2023-05-12T02:44:26;99836.47;;;20.38;47.35
60212;BME280;46079;48.686;15.598;2023-05-12T02:46:51;99839.09;;;20.38;47.32
60212;BME280;46079;48.686;15.598;2023-05-12T02:49:17;99841.72;;;20.38;47.22
60212;BME280;46079;48.686;15.598;2023-05-12T02:51:42;99842.56;;;20.38;47.34
60212;BME280;46079;48.686;15.598;2023-05-12T02:54:08;99836.47;;;20.38;47.26
60212;BME280;46079;48.686;15.598;2023-05-12T02:56:33;99837.31;;;20.38;47.45
60212;BME280;46079;48.686;15.598;2023-05-12T02:58:58;99837.44;;;20.37;47.19
60212;BME280;46079;48.686;15.598;2023-05-12T03:01:24;99833.00;;;20.37;47.28
60212;BME280;46079;48.686;15.598;2023-05-12T03:03:49;99835.63;;;20.37;47.19
60212;BME280;46079;48.686;15.598;2023-05-12T03:06:18;99839.22;;;20.36;47.15
60212;BME280;46079;48.686;15.598;2023-05-12T03:08:43;99844.34;;;20.38;47.27
60212;BME280;46079;48.686;15.598;2023-05-12T03:11:08;99842.69;;;20.37;47.29
60212;BME280;46079;48.686;15.598;2023-05-12T03:13:34;99845.31;;;20.37;47.30
60212;BME280;46079;48.686;15.598;2023-05-12T03:15:59;99847.13;;;20.36;47.12
60212;BME280;46079;48.686;15.598;2023-05-12T03:18:26;99845.31;;;20.37;47.16
60212;BME280;46079;48.686;15.598;2023-05-12T03:20:52;99838.41;;;20.36;47.20
60212;BME280;46079;48.686;15.598;2023-05-12T03:23:18;99838.25;;;20.37;47.19
60212;BME280;46079;48.686;15.598;2023-05-12T03:25:43;99837.44;;;20.37;47.21
60212;BME280;46079;48.686;15.598;2023-05-12T03:28:08;99837.44;;;20.37;47.12
60212;BME280;46079;48.686;15.598;2023-05-12T03:30:34;99835.78;;;20.36;47.34
60212;BME280;46079;48.686;15.598;2023-05-12T03:32:59;99825.28;;;20.36;47.22
60212;BME280;46079;48.686;15.598;2023-05-12T03:35:25;99837.44;;;20.37;47.05
60212;BME280;46079;48.686;15.598;2023-05-12T03:37:51;99836.59;;;20.36;47.22
60212;BME280;46079;48.686;15.598;2023-05-12T03:40:16;99838.25;;;20.37;47.16
60212;BME280;46079;48.686;15.598;2023-05-12T03:42:43;99833.97;;;20.36;47.21
60212;BME280;46079;48.686;15.598;2023-05-12T03:45:10;99841.03;;;20.36;47.43
60212;BME280;46079;48.686;15.598;2023-05-12T03:47:35;99839.22;;;20.36;47.15
60212;BME280;46079;48.686;15.598;2023-05-12T03:50:01;99836.59;;;20.36;47.20
60212;BME280;46079;48.686;15.598;2023-05-12T03:52:26;99842.84;;;20.35;47.19
60212;BME280;46079;48.686;15.598;2023-05-12T03:54:52;99841.03;;;20.36;47.12
60212;BME280;46079;48.686;15.598;2023-05-12T03:57:17;99839.22;;;20.36;47.29
60212;BME280;46079;48.686;15.598;2023-05-12T03:59:42;99832.34;;;20.35;46.82
60212;BME280;46079;48.686;15.598;2023-05-12T04:02:08;99834.97;;;20.35;47.22
60212;BME280;46079;48.686;15.598;2023-05-12T04:04:36;99840.22;;;20.35;47.21
60212;BME280;46079;48.686;15.598;2023-05-12T04:07:01;99840.22;;;20.35;47.15
60212;BME280;46079;48.686;15.598;2023-05-12T04:09:30;99841.84;;;20.36;47.26
60212;BME280;46079;48.686;15.598;2023-05-12T04:11:55;99846.28;;;20.36;47.24
60212;BME280;46079;48.686;15.598;2023-05-12T04:14:21;99848.09;;;20.35;47.20
60212;BME280;46079;48.686;15.598;2023-05-12T04:16:46;99850.72;;;20.35;46.76
60212;BME280;46079;48.686;15.598;2023-05-12T04:19:12;99851.53;;;20.36;47.36
60212;BME280;46079;48.686;15.598;2023-05-12T04:21:37;99859.56;;;20.34;47.08
60212;BME280;46079;48.686;15.598;2023-05-12T04:24:03;99859.56;;;20.34;47.04
60212;BME280;46079;48.686;15.598;2023-05-12T04:26:29;99861.22;;;20.35;47.25
60212;BME280;46079;48.686;15.598;2023-05-12T04:28:54;99867.44;;;20.34;47.14
60212;BME280;46079;48.686;15.598;2023-05-12T04:31:20;99863.84;;;20.35;47.21
60212;BME280;46079;48.686;15.598;2023-05-12T04:33:45;99873.38;;;20.36;47.07
60212;BME280;46079;48.686;15.598;2023-05-12T04:36:11;99868.25;;;20.35;47.24
60212;BME280;46079;48.686;15.598;2023-05-12T04:38:38;99872.69;;;20.34;47.09
60212;BME280;46079;48.686;15.598;2023-05-12T04:41:04;99873.66;;;20.33;46.95
60212;BME280;46079;48.686;15.598;2023-05-12T04:43:30;99877.00;;;20.35;47.15
60212;BME280;46079;48.686;15.598;2023-05-12T04:45:56;99877.00;;;20.35;47.25
60212;BME280;46079;48.686;15.598;2023-05-12T04:48:21;99879.75;;;20.34;47.25
60212;BME280;46079;48.686;15.598;2023-05-12T04:50:47;99882.38;;;20.34;47.09
60212;BME280;46079;48.686;15.598;2023-05-12T04:53:16;99884.00;;;20.35;47.10
60212;BME280;46079;48.686;15.598;2023-05-12T04:55:42;99879.75;;;20.34;47.31
60212;BME280;46079;48.686;15.598;2023-05-12T04:58:12;99884.00;;;20.35;47.10
60212;BME280;46079;48.686;15.598;2023-05-12T05:00:38;99878.75;;;20.35;47.30
60212;BME280;46079;48.686;15.598;2023-05-12T05:03:04;99877.94;;;20.34;47.54
60212;BME280;46079;48.686;15.598;2023-05-12T05:05:30;99879.63;;;20.35;47.31
60212;BME280;46079;48.686;15.598;2023-05-12T05:07:55;99877.13;;;20.34;47.08
60212;BME280;46079;48.686;15.598;2023-05-12T05:10:20;99876.28;;;20.33;47.12
60212;BME280;46079;48.686;15.598;2023-05-12T05:12:46;99879.75;;;20.34;47.18
60212;BME280;46079;48.686;15.598;2023-05-12T05:15:11;99879.75;;;20.34;47.17
60212;BME280;46079;48.686;15.598;2023-05-12T05:17:37;99874.50;;;20.34;47.01
60212;BME280;46079;48.686;15.598;2023-05-12T05:20:02;99885.00;;;20.34;47.13
60212;BME280;46079;48.686;15.598;2023-05-12T05:22:28;99881.53;;;20.33;47.09
60212;BME280;46079;48.686;15.598;2023-05-12T05:24:54;99885.81;;;20.34;47.30
60212;BME280;46079;48.686;15.598;2023-05-12T05:27:20;99882.38;;;20.34;47.05
60212;BME280;46079;48.686;15.598;2023-05-12T05:29:45;99868.41;;;20.33;46.94
60212;BME280;46079;48.686;15.598;2023-05-12T05:32:11;99882.38;;;20.34;47.24
60212;BME280;46079;48.686;15.598;2023-05-12T05:34:36;99878.91;;;20.33;47.01
60212;BME280;46079;48.686;15.598;2023-05-12T05:37:01;99884.16;;;20.33;47.00
60212;BME280;46079;48.686;15.598;2023-05-12T05:39:27;99881.53;;;20.33;46.94
60212;BME280;46079;48.686;15.598;2023-05-12T05:41:55;99884.16;;;20.33;47.12
60212;BME280;46079;48.686;15.598;2023-05-12T05:44:21;99890.25;;;20.34;47.17
60212;BME280;46079;48.686;15.598;2023-05-12T05:46:46;99890.41;;;20.32;46.81
60212;BME280;46079;48.686;15.598;2023-05-12T05:49:12;99884.16;;;20.33;47.33
60212;BME280;46079;48.686;15.598;2023-05-12T05:51:37;99883.34;;;20.33;47.16
60212;BME280;46079;48.686;15.598;2023-05-12T05:54:03;99882.53;;;20.32;47.19
60212;BME280;46079;48.686;15.598;2023-05-12T05:56:28;99888.59;;;20.33;47.29
60212;BME280;46079;48.686;15.598;2023-05-12T05:58:54;99884.16;;;20.33;47.16
60212;BME280;46079;48.686;15.598;2023-05-12T06:01:21;99897.31;;;20.33;47.05
60212;BME280;46079;48.686;15.598;2023-05-12T06:03:46;99888.72;;;20.31;47.02
60212;BME280;46079;48.686;15.598;2023-05-12T06:06:12;99896.59;;;20.31;47.25
60212;BME280;46079;48.686;15.598;2023-05-12T06:08:37;99897.44;;;20.32;47.11
60212;BME280;46079;48.686;15.598;2023-05-12T06:11:03;99901.84;;;20.31;46.99
60212;BME280;46079;48.686;15.598;2023-05-12T06:13:28;99913.19;;;20.32;47.11
60212;BME280;46079;48.686;15.598;2023-05-12T06:15:53;99905.31;;;20.32;47.03
60212;BME280;46079;48.686;15.598;2023-05-12T06:18:21;99905.19;;;20.33;47.03
60212;BME280;46079;48.686;15.598;2023-05-12T06:20:46;99914.03;;;20.32;47.21
60212;BME280;46079;48.686;15.598;2023-05-12T06:23:12;99908.78;;;20.32;47.19
60212;BME280;46079;48.686;15.598;2023-05-12T06:25:37;99907.13;;;20.31;47.24
60212;BME280;46079;48.686;15.598;2023-05-12T06:28:03;99907.00;;;20.33;47.12
60212;BME280;46079;48.686;15.598;2023-05-12T06:30:28;99907.00;;;20.33;46.91
60212;BME280;46079;48.686;15.598;2023-05-12T06:32:54;99907.94;;;20.32;47.25
60212;BME280;46079;48.686;15.598;2023-05-12T06:35:20;99920.13;;;20.33;47.22
60212;BME280;46079;48.686;15.598;2023-05-12T06:37:45;99907.13;;;20.31;47.17
60212;BME280;46079;48.686;15.598;2023-05-12T06:40:15;99911.41;;;20.32;47.26
60212;BME280;46079;48.686;15.598;2023-05-12T06:42:41;99907.00;;;20.33;47.15
60212;BME280;46079;48.686;15.598;2023-05-12T06:45:07;99911.41;;;20.32;46.96
60212;BME280;46079;48.686;15.598;2023-05-12T06:47:32;99906.16;;;20.32;47.04
60212;BME280;46079;48.686;15.598;2023-05-12T06:49:58;99914.03;;;20.32;46.62
60212;BME280;46079;48.686;15.598;2023-05-12T06:52:23;99907.94;;;20.32;46.98
60212;BME280;46079;48.686;15.598;2023-05-12T06:54:49;99915.00;;;20.31;47.24
60212;BME280;46079;48.686;15.598;2023-05-12T06:57:14;99912.38;;;20.31;46.90
60212;BME280;46079;48.686;15.598;2023-05-12T06:59:40;99913.19;;;20.32;47.80
60212;BME280;46079;48.686;15.598;2023-05-12T07:02:05;99911.53;;;20.31;46.95
60212;BME280;46079;48.686;15.598;2023-05-12T07:04:31;99928.13;;;20.31;47.03
60212;BME280;46079;48.686;15.598;2023-05-12T07:06:56;99928.13;;;20.31;47.40
60212;BME280;46079;48.686;15.598;2023-05-12T07:09:22;99923.69;;;20.32;47.02
60212;BME280;46079;48.686;15.598;2023-05-12T07:11:47;99924.69;;;20.31;47.29
60212;BME280;46079;48.686;15.598;2023-05-12T07:14:12;99922.88;;;20.31;47.05
60212;BME280;46079;48.686;15.598;2023-05-12T07:16:38;99922.88;;;20.31;47.08
60212;BME280;46079;48.686;15.598;2023-05-12T07:19:03;99918.44;;;20.32;46.96
60212;BME280;46079;48.686;15.598;2023-05-12T07:21:30;99911.53;;;20.31;47.23
60212;BME280;46079;48.686;15.598;2023-05-12T07:23:56;99921.06;;;20.32;47.11
60212;BME280;46079;48.686;15.598;2023-05-12T07:26:21;99918.44;;;20.32;47.08
60212;BME280;46079;48.686;15.598;2023-05-12T07:28:48;99919.31;;;20.32;47.01
60212;BME280;46079;48.686;15.598;2023-05-12T07:31:14;99922.88;;;20.31;47.23
60212;BME280;46079;48.686;15.598;2023-05-12T07:33:40;99922.88;;;20.31;47.04
60212;BME280;46079;48.686;15.598;2023-05-12T07:36:05;99923.69;;;20.32;47.21
60212;BME280;46079;48.686;15.598;2023-05-12T07:38:33;99922.88;;;20.31;47.23
60212;BME280;46079;48.686;15.598;2023-05-12T07:40:59;99928.13;;;20.31;47.11
60212;BME280;46079;48.686;15.598;2023-05-12T07:43:24;99930.75;;;20.31;47.11
60212;BME280;46079;48.686;15.598;2023-05-12T07:45:50;99927.31;;;20.31;47.16
60212;BME280;46079;48.686;15.598;2023-05-12T07:48:15;99930.75;;;20.31;47.03
60212;BME280;46079;48.686;15.598;2023-05-12T07:50:41;99934.19;;;20.32;47.32
60212;BME280;46079;48.686;15.598;2023-05-12T07:53:06;99937.81;;;20.31;47.25
60212;BME280;46079;48.686;15.598;2023-05-12T07:55:32;99933.38;;;20.31;47.19
60212;BME280;46079;48.686;15.598;2023-05-12T07:58:07;99943.06;;;20.31;47.17
60212;BME280;46079;48.686;15.598;2023-05-12T08:00:32;99943.06;;;20.31;47.12
60212;BME280;46079;48.686;15.598;2023-05-12T08:02:58;99948.31;;;20.31;47.03
60212;BME280;46079;48.686;15.598;2023-05-12T08:05:24;99954.41;;;20.31;47.22
60212;BME280;46079;48.686;15.598;2023-05-12T08:07:49;99950.94;;;20.31;47.26
60212;BME280;46079;48.686;15.598;2023-05-12T08:10:16;99949.97;;;20.32;47.03
60212;BME280;46079;48.686;15.598;2023-05-12T08:12:41;99951.78;;;20.31;47.00
60212;BME280;46079;48.686;15.598;2023-05-12T08:15:07;99957.03;;;20.31;47.17
60212;BME280;46079;48.686;15.598;2023-05-12T08:17:34;99954.41;;;20.31;46.99
60212;BME280;46079;48.686;15.598;2023-05-12T08:20:00;99957.84;;;20.32;47.18
60212;BME280;46079;48.686;15.598;2023-05-12T08:22:27;99954.41;;;20.31;47.05
60212;BME280;46079;48.686;15.598;2023-05-12T08:24:53;99952.59;;;20.32;47.16
60212;BME280;46079;48.686;15.598;2023-05-12T08:27:18;99951.78;;;20.31;46.91
60212;BME280;46079;48.686;15.598;2023-05-12T08:29:44;99949.13;;;20.31;47.09
60212;BME280;46079;48.686;15.598;2023-05-12T08:32:10;99962.28;;;20.31;47.16
60212;BME280;46079;48.686;15.598;2023-05-12T08:34:36;99955.22;;;20.32;47.16
60212;BME280;46079;48.686;15.598;2023-05-12T08:37:01;99954.41;;;20.31;47.13
60212;BME280;46079;48.686;15.598;2023-05-12T08:39:27;99961.31;;;20.32;47.02
60212;BME280;46079;48.686;15.598;2023-05-12T08:44:45;99953.56;;;20.31;46.95
60212;BME280;46079;48.686;15.598;2023-05-12T08:47:11;99951.78;;;20.31;47.16
60212;BME280;46079;48.686;15.598;2023-05-12T08:49:38;99951.78;;;20.31;47.02
60212;BME280;46079;48.686;15.598;2023-05-12T08:52:04;99956.19;;;20.31;47.15
60212;BME280;46079;48.686;15.598;2023-05-12T08:54:31;99954.41;;;20.31;47.16
60212;BME280;46079;48.686;15.598;2023-05-12T08:56:58;99949.13;;;20.31;47.09
60212;BME280;46079;48.686;15.598;2023-05-12T08:59:23;99959.66;;;20.31;47.16
60212;BME280;46079;48.686;15.598;2023-05-12T09:01:49;99964.06;;;20.31;47.15
60212;BME280;46079;48.686;15.598;2023-05-12T09:04:16;99969.34;;;20.31;46.96
60212;BME280;46079;48.686;15.598;2023-05-12T09:06:42;99959.66;;;20.31;47.02
60212;BME280;46079;48.686;15.598;2023-05-12T09:09:08;99967.69;;;20.30;46.96
60212;BME280;46079;48.686;15.598;2023-05-12T09:11:33;99966.72;;;20.31;47.19
60212;BME280;46079;48.686;15.598;2023-05-12T09:14:02;99964.91;;;20.31;47.13
60212;BME280;46079;48.686;15.598;2023-05-12T09:16:31;99969.34;;;20.31;47.15
60212;BME280;46079;48.686;15.598;2023-05-12T09:18:59;99964.06;;;20.31;47.18
60212;BME280;46079;48.686;15.598;2023-05-12T09:21:25;99988.53;;;20.31;47.15
60212;BME280;46079;48.686;15.598;2023-05-12T09:24:05;99972.78;;;20.31;47.25
60212;BME280;46079;48.686;15.598;2023-05-12T09:26:52;99979.00;;;20.30;47.09
60212;BME280;46079;48.686;15.598;2023-05-12T09:29:19;99991.31;;;20.30;46.99
60212;BME280;46079;48.686;15.598;2023-05-12T09:31:51;99989.38;;;20.32;47.51
60212;BME280;46079;48.686;15.598;2023-05-12T09:34:18;99990.34;;;20.31;47.22
60212;BME280;46079;48.686;15.598;2023-05-12T09:36:44;99999.06;;;20.31;47.26
60212;BME280;46079;48.686;15.598;2023-05-12T09:39:18;99984.28;;;20.30;47.10
60212;BME280;46079;48.686;15.598;2023-05-12T09:41:44;99994.78;;;20.30;46.76
60212;BME280;46079;48.686;15.598;2023-05-12T09:44:13;99989.53;;;20.30;47.13
60212;BME280;46079;48.686;15.598;2023-05-12T09:46:40;99998.09;;;20.32;47.04
60212;BME280;46079;48.686;15.598;2023-05-12T09:49:06;99999.06;;;20.31;46.96
60212;BME280;46079;48.686;15.598;2023-05-12T09:51:32;99991.16;;;20.31;47.13
60212;BME280;46079;48.686;15.598;2023-05-12T09:53:57;99991.16;;;20.31;47.22
60212;BME280;46079;48.686;15.598;2023-05-12T09:56:25;100001.56;;;20.33;47.12
60212;BME280;46079;48.686;15.598;2023-05-12T09:58:52;99990.34;;;20.31;47.24
60212;BME280;46079;48.686;15.598;2023-05-12T10:01:19;99999.06;;;20.31;47.18
60212;BME280;46079;48.686;15.598;2023-05-12T10:03:50;100006.00;;;20.32;46.95
60212;BME280;46079;48.686;15.598;2023-05-12T10:06:20;100003.47;;;20.31;47.04
60212;BME280;46079;48.686;15.598;2023-05-12T10:08:55;99992.00;;;20.32;47.09
60212;BME280;46079;48.686;15.598;2023-05-12T10:11:23;99998.09;;;20.32;47.12
60212;BME280;46079;48.686;15.598;2023-05-12T10:13:51;99999.88;;;20.32;47.11
60212;BME280;46079;48.686;15.598;2023-05-12T10:16:16;99993.81;;;20.31;46.69
60212;BME280;46079;48.686;15.598;2023-05-12T10:18:43;99998.94;;;20.33;47.00
60212;BME280;46079;48.686;15.598;2023-05-12T10:21:11;99991.16;;;20.31;47.06
60212;BME280;46079;48.686;15.598;2023-05-12T10:23:39;99991.16;;;20.31;47.15
60212;BME280;46079;48.686;15.598;2023-05-12T10:26:08;99988.53;;;20.31;46.96
60212;BME280;46079;48.686;15.598;2023-05-12T10:28:36;99992.00;;;20.32;47.23
60212;BME280;46079;48.686;15.598;2023-05-12T10:31:04;99988.53;;;20.31;47.19
60212;BME280;46079;48.686;15.598;2023-05-12T10:33:30;99991.06;;;20.33;47.10
60212;BME280;46079;48.686;15.598;2023-05-12T10:35:56;99991.16;;;20.31;46.76
60212;BME280;46079;48.686;15.598;2023-05-12T10:38:22;99998.09;;;20.32;46.98
60212;BME280;46079;48.686;15.598;2023-05-12T10:41:01;99998.09;;;20.32;47.14
60212;BME280;46079;48.686;15.598;2023-05-12T10:43:28;100009.44;;;20.33;47.30
60212;BME280;46079;48.686;15.598;2023-05-12T10:48:54;100009.44;;;20.33;47.25
60212;BME280;46079;48.686;15.598;2023-05-12T10:51:22;100010.38;;;20.32;47.08
60212;BME280;46079;48.686;15.598;2023-05-12T10:53:52;100022.56;;;20.33;47.14
60212;BME280;46079;48.686;15.598;2023-05-12T10:56:28;100007.63;;;20.33;47.28
60212;BME280;46079;48.686;15.598;2023-05-12T11:01:39;100015.50;;;20.33;47.07
60212;BME280;46079;48.686;15.598;2023-05-12T11:04:13;100021.59;;;20.34;46.83
60212;BME280;46079;48.686;15.598;2023-05-12T11:06:40;100015.50;;;20.33;47.18
60212;BME280;46079;48.686;15.598;2023-05-12T11:09:06;100019.94;;;20.33;47.38
60212;BME280;46079;48.686;15.598;2023-05-12T11:11:32;100015.50;;;20.33;47.16
60212;BME280;46079;48.686;15.598;2023-05-12T11:13:58;100019.94;;;20.33;47.01
60212;BME280;46079;48.686;15.598;2023-05-12T11:16:24;100015.50;;;20.33;47.18
60212;BME280;46079;48.686;15.598;2023-05-12T11:19:05;100006.00;;;20.32;47.03
60212;BME280;46079;48.686;15.598;2023-05-12T11:21:33;100010.25;;;20.33;47.18
60212;BME280;46079;48.686;15.598;2023-05-12T11:24:00;100012.06;;;20.33;46.92
60212;BME280;46079;48.686;15.598;2023-05-12T11:26:27;100020.78;;;20.33;46.91
60212;BME280;46079;48.686;15.598;2023-05-12T11:28:53;100015.50;;;20.33;47.11
60212;BME280;46079;48.686;15.598;2023-05-12T11:31:20;100017.16;;;20.34;47.10
60212;BME280;46079;48.686;15.598;2023-05-12T11:33:46;100014.69;;;20.33;47.09
60212;BME280;46079;48.686;15.598;2023-05-12T11:36:12;100026.03;;;20.33;47.14
60212;BME280;46079;48.686;15.598;2023-05-12T11:38:38;100024.38;;;20.32;47.17
60212;BME280;46079;48.686;15.598;2023-05-12T11:41:04;100026.03;;;20.33;47.03
60212;BME280;46079;48.686;15.598;2023-05-12T11:43:29;100025.19;;;20.33;47.26
60212;BME280;46079;48.686;15.598;2023-05-12T11:45:55;100030.44;;;20.33;47.16
60212;BME280;46079;48.686;15.598;2023-05-12T11:48:20;100036.53;;;20.33;47.18
60212;BME280;46079;48.686;15.598;2023-05-12T11:50:47;100039.28;;;20.32;47.08
60212;BME280;46079;48.686;15.598;2023-05-12T11:53:16;100039.16;;;20.33;47.11
60212;BME280;46079;48.686;15.598;2023-05-12T11:55:54;100036.53;;;20.33;47.07
60212;BME280;46079;48.686;15.598;2023-05-12T11:58:25;100043.59;;;20.33;47.30
60212;BME280;46079;48.686;15.598;2023-05-12T12:00:53;100047.03;;;20.33;47.00
60212;BME280;46079;48.686;15.598;2023-05-12T12:03:19;100044.53;;;20.32;47.05
60212;BME280;46079;48.686;15.598;2023-05-12T12:05:56;100049.66;;;20.33;47.32
60212;BME280;46079;48.686;15.598;2023-05-12T12:08:22;100054.91;;;20.33;47.21
60212;BME280;46079;48.686;15.598;2023-05-12T12:10:47;100053.13;;;20.34;47.41
60212;BME280;46079;48.686;15.598;2023-05-12T12:13:23;100054.09;;;20.33;47.92
60212;BME280;46079;48.686;15.598;2023-05-12T12:15:49;100059.19;;;20.34;48.25
60212;BME280;46079;48.686;15.598;2023-05-12T12:18:15;100055.75;;;20.34;48.40
60212;BME280;46079;48.686;15.598;2023-05-12T12:20:45;100072.22;;;20.36;48.82
60212;BME280;46079;48.686;15.598;2023-05-12T12:23:11;100060.88;;;20.35;48.88
60212;BME280;46079;48.686;15.598;2023-05-12T12:25:36;100061.72;;;20.36;49.38
60212;BME280;46079;48.686;15.598;2023-05-12T12:28:02;100060.03;;;20.35;49.19
60212;BME280;46079;48.686;15.598;2023-05-12T12:30:29;100068.75;;;20.35;49.21
60212;BME280;46079;48.686;15.598;2023-05-12T12:32:54;100063.50;;;20.35;49.28
60212;BME280;46079;48.686;15.598;2023-05-12T12:35:19;100067.78;;;20.36;49.21
60212;BME280;46079;48.686;15.598;2023-05-12T12:37:45;100067.78;;;20.36;49.42
60212;BME280;46079;48.686;15.598;2023-05-12T12:40:16;100070.41;;;20.36;49.54
60212;BME280;46079;48.686;15.598;2023-05-12T12:42:42;100065.97;;;20.37;49.66
60212;BME280;46079;48.686;15.598;2023-05-12T12:45:08;100062.53;;;20.36;49.60
60212;BME280;46079;48.686;15.598;2023-05-12T12:47:35;100062.41;;;20.38;49.64
60212;BME280;46079;48.686;15.598;2023-05-12T12:50:01;100070.41;;;20.36;49.58
60212;BME280;46079;48.686;15.598;2023-05-12T12:52:26;100066.81;;;20.37;49.71